sensor_id;sensor_type;location;lat;lon;timestamp;P1;durP1;ratioP1;P2;durP2;ratioP2
21170;SDS011;10743;52.160;20.910;2023-11-18T00:00:00;161.57;;;55.67;;
21170;SDS011;10743;52.160;20.910;2023-11-18T00:02:29;159.47;;;54.33;;
21170;SDS011;10743;52.160;20.910;2023-11-18T00:05:00;157.90;;;53.80;;
21170;SDS011;10743;52.160;20.910;2023-11-18T00:07:27;159.93;;;54.07;;
21170;SDS011;10743;52.160;20.910;2023-11-18T00:09:55;154.50;;;53.63;;
21170;SDS011;10743;52.160;20.910;2023-11-18T00:12:22;171.23;;;60.13;;
21170;SDS011;10743;52.160;20.910;2023-11-18T00:14:50;166.80;;;57.33;;
21170;SDS011;10743;52.160;20.910;2023-11-18T00:17:17;162.93;;;56.70;;
21170;SDS011;10743;52.160;20.910;2023-11-18T00:19:46;163.93;;;56.00;;
21170;SDS011;10743;52.160;20.910;2023-11-18T00:22:13;173.87;;;60.20;;
21170;SDS011;10743;52.160;20.910;2023-11-18T00:24:40;163.67;;;56.50;;
21170;SDS011;10743;52.160;20.910;2023-11-18T00:27:08;161.50;;;57.50;;
21170;SDS011;10743;52.160;20.910;2023-11-18T00:29:35;157.73;;;53.43;;
21170;SDS011;10743;52.160;20.910;2023-11-18T00:32:04;162.97;;;62.53;;
21170;SDS011;10743;52.160;20.910;2023-11-18T00:34:31;179.67;;;69.63;;
21170;SDS011;10743;52.160;20.910;2023-11-18T00:37:01;162.23;;;55.53;;
21170;SDS011;10743;52.160;20.910;2023-11-18T00:39:28;159.00;;;54.77;;
21170;SDS011;10743;52.160;20.910;2023-11-18T00:41:55;157.40;;;53.83;;
21170;SDS011;10743;52.160;20.910;2023-11-18T00:44:23;158.47;;;54.10;;
21170;SDS011;10743;52.160;20.910;2023-11-18T00:46:50;158.77;;;54.10;;
21170;SDS011;10743;52.160;20.910;2023-11-18T00:49:17;152.83;;;53.00;;
21170;SDS011;10743;52.160;20.910;2023-11-18T00:51:44;150.63;;;52.27;;
21170;SDS011;10743;52.160;20.910;2023-11-18T00:54:11;148.27;;;52.70;;
21170;SDS011;10743;52.160;20.910;2023-11-18T00:56:39;159.03;;;54.50;;
21170;SDS011;10743;52.160;20.910;2023-11-18T00:59:06;184.63;;;78.37;;
21170;SDS011;10743;52.160;20.910;2023-11-18T01:01:33;162.33;;;60.70;;
21170;SDS011;10743;52.160;20.910;2023-11-18T01:04:01;158.30;;;54.23;;
21170;SDS011;10743;52.160;20.910;2023-11-18T01:06:29;155.10;;;53.83;;
21170;SDS011;10743;52.160;20.910;2023-11-18T01:08:56;157.53;;;54.90;;
21170;SDS011;10743;52.160;20.910;2023-11-18T01:11:23;153.40;;;53.47;;
21170;SDS011;10743;52.160;20.910;2023-11-18T01:13:50;155.70;;;52.40;;
21170;SDS011;10743;52.160;20.910;2023-11-18T01:16:17;154.50;;;52.43;;
21170;SDS011;10743;52.160;20.910;2023-11-18T01:18:46;157.03;;;55.40;;
21170;SDS011;10743;52.160;20.910;2023-11-18T01:21:14;155.60;;;52.90;;
21170;SDS011;10743;52.160;20.910;2023-11-18T01:23:43;153.33;;;54.50;;
21170;SDS011;10743;52.160;20.910;2023-11-18T01:26:11;155.93;;;52.87;;
21170;SDS011;10743;52.160;20.910;2023-11-18T01:28:39;156.33;;;52.97;;
21170;SDS011;10743;52.160;20.910;2023-11-18T01:31:09;153.13;;;56.07;;
21170;SDS011;10743;52.160;20.910;2023-11-18T01:33:37;176.90;;;71.53;;
21170;SDS011;10743;52.160;20.910;2023-11-18T01:36:09;159.37;;;57.57;;
21170;SDS011;10743;52.160;20.910;2023-11-18T01:38:37;156.17;;;54.07;;
21170;SDS011;10743;52.160;20.910;2023-11-18T01:41:05;159.43;;;54.57;;
21170;SDS011;10743;52.160;20.910;2023-11-18T01:43:33;153.97;;;53.63;;
21170;SDS011;10743;52.160;20.910;2023-11-18T01:46:05;160.27;;;55.33;;
21170;SDS011;10743;52.160;20.910;2023-11-18T01:48:37;178.93;;;70.23;;
21170;SDS011;10743;52.160;20.910;2023-11-18T01:51:06;161.50;;;61.03;;
21170;SDS011;10743;52.160;20.910;2023-11-18T01:53:36;160.17;;;57.30;;
21170;SDS011;10743;52.160;20.910;2023-11-18T01:56:06;158.73;;;53.77;;
21170;SDS011;10743;52.160;20.910;2023-11-18T01:58:35;157.10;;;53.17;;
21170;SDS011;10743;52.160;20.910;2023-11-18T02:01:03;157.63;;;53.53;;
21170;SDS011;10743;52.160;20.910;2023-11-18T02:03:34;156.87;;;55.37;;
21170;SDS011;10743;52.160;20.910;2023-11-18T02:06:02;160.80;;;54.20;;
21170;SDS011;10743;52.160;20.910;2023-11-18T02:08:33;163.20;;;55.23;;
21170;SDS011;10743;52.160;20.910;2023-11-18T02:11:05;158.20;;;54.17;;
21170;SDS011;10743;52.160;20.910;2023-11-18T02:13:51;161.83;;;55.93;;
21170;SDS011;10743;52.160;20.910;2023-11-18T02:16:21;155.47;;;52.10;;
21170;SDS011;10743;52.160;20.910;2023-11-18T02:18:50;155.37;;;53.17;;
21170;SDS011;10743;52.160;20.910;2023-11-18T02:21:20;160.27;;;52.77;;
21170;SDS011;10743;52.160;20.910;2023-11-18T02:23:49;150.40;;;51.77;;
21170;SDS011;10743;52.160;20.910;2023-11-18T02:26:20;160.53;;;53.90;;
21170;SDS011;10743;52.160;20.910;2023-11-18T02:28:49;157.03;;;52.17;;
21170;SDS011;10743;52.160;20.910;2023-11-18T02:31:16;162.23;;;53.73;;
21170;SDS011;10743;52.160;20.910;2023-11-18T02:34:05;152.13;;;51.77;;
21170;SDS011;10743;52.160;20.910;2023-11-18T02:36:43;152.03;;;51.70;;
21170;SDS011;10743;52.160;20.910;2023-11-18T02:39:22;157.70;;;51.93;;
21170;SDS011;10743;52.160;20.910;2023-11-18T02:41:55;147.07;;;50.90;;
21170;SDS011;10743;52.160;20.910;2023-11-18T02:44:24;153.20;;;51.33;;
21170;SDS011;10743;52.160;20.910;2023-11-18T02:46:52;152.27;;;51.67;;
21170;SDS011;10743;52.160;20.910;2023-11-18T02:49:19;166.03;;;58.90;;
21170;SDS011;10743;52.160;20.910;2023-11-18T02:51:46;185.37;;;84.33;;
21170;SDS011;10743;52.160;20.910;2023-11-18T02:54:14;171.47;;;66.50;;
21170;SDS011;10743;52.160;20.910;2023-11-18T02:56:42;157.10;;;55.63;;
21170;SDS011;10743;52.160;20.910;2023-11-18T02:59:09;175.93;;;72.30;;
21170;SDS011;10743;52.160;20.910;2023-11-18T03:01:36;156.23;;;53.50;;
21170;SDS011;10743;52.160;20.910;2023-11-18T03:04:07;146.67;;;50.63;;
21170;SDS011;10743;52.160;20.910;2023-11-18T03:06:35;175.03;;;85.27;;
21170;SDS011;10743;52.160;20.910;2023-11-18T03:09:02;172.43;;;95.10;;
21170;SDS011;10743;52.160;20.910;2023-11-18T03:11:33;163.40;;;72.53;;
21170;SDS011;10743;52.160;20.910;2023-11-18T03:14:00;152.87;;;51.50;;
21170;SDS011;10743;52.160;20.910;2023-11-18T03:16:28;155.87;;;51.87;;
21170;SDS011;10743;52.160;20.910;2023-11-18T03:18:55;162.43;;;56.83;;
21170;SDS011;10743;52.160;20.910;2023-11-18T03:21:24;156.17;;;51.90;;
21170;SDS011;10743;52.160;20.910;2023-11-18T03:23:52;151.30;;;52.00;;
21170;SDS011;10743;52.160;20.910;2023-11-18T03:26:19;152.97;;;52.00;;
21170;SDS011;10743;52.160;20.910;2023-11-18T03:28:47;159.10;;;54.23;;
21170;SDS011;10743;52.160;20.910;2023-11-18T03:31:15;145.43;;;50.43;;
21170;SDS011;10743;52.160;20.910;2023-11-18T03:33:42;149.80;;;50.67;;
21170;SDS011;10743;52.160;20.910;2023-11-18T03:36:10;162.07;;;60.00;;
21170;SDS011;10743;52.160;20.910;2023-11-18T03:38:38;155.80;;;57.67;;
21170;SDS011;10743;52.160;20.910;2023-11-18T03:41:06;149.53;;;50.77;;
21170;SDS011;10743;52.160;20.910;2023-11-18T03:43:35;152.60;;;51.87;;
21170;SDS011;10743;52.160;20.910;2023-11-18T03:46:04;146.20;;;50.30;;
21170;SDS011;10743;52.160;20.910;2023-11-18T03:48:31;149.30;;;51.27;;
21170;SDS011;10743;52.160;20.910;2023-11-18T03:50:59;150.93;;;51.47;;
21170;SDS011;10743;52.160;20.910;2023-11-18T03:53:27;149.10;;;49.97;;
21170;SDS011;10743;52.160;20.910;2023-11-18T03:55:54;156.53;;;54.87;;
21170;SDS011;10743;52.160;20.910;2023-11-18T03:58:21;165.87;;;65.77;;
21170;SDS011;10743;52.160;20.910;2023-11-18T04:00:48;161.20;;;61.53;;
21170;SDS011;10743;52.160;20.910;2023-11-18T04:03:15;154.20;;;53.13;;
21170;SDS011;10743;52.160;20.910;2023-11-18T04:05:42;147.87;;;50.53;;
21170;SDS011;10743;52.160;20.910;2023-11-18T04:08:10;151.07;;;50.90;;
21170;SDS011;10743;52.160;20.910;2023-11-18T04:10:38;151.30;;;51.27;;
21170;SDS011;10743;52.160;20.910;2023-11-18T04:13:05;152.27;;;51.70;;
21170;SDS011;10743;52.160;20.910;2023-11-18T04:15:32;153.33;;;51.23;;
21170;SDS011;10743;52.160;20.910;2023-11-18T04:18:01;155.13;;;55.33;;
21170;SDS011;10743;52.160;20.910;2023-11-18T04:20:29;150.60;;;52.00;;
21170;SDS011;10743;52.160;20.910;2023-11-18T04:22:56;153.77;;;52.47;;
21170;SDS011;10743;52.160;20.910;2023-11-18T04:25:23;151.80;;;53.07;;
21170;SDS011;10743;52.160;20.910;2023-11-18T04:27:51;150.67;;;51.27;;
21170;SDS011;10743;52.160;20.910;2023-11-18T04:30:18;146.70;;;49.53;;
21170;SDS011;10743;52.160;20.910;2023-11-18T04:32:45;151.90;;;50.80;;
21170;SDS011;10743;52.160;20.910;2023-11-18T04:35:13;154.17;;;51.03;;
21170;SDS011;10743;52.160;20.910;2023-11-18T04:37:40;150.60;;;49.97;;
21170;SDS011;10743;52.160;20.910;2023-11-18T04:40:10;148.50;;;49.83;;
21170;SDS011;10743;52.160;20.910;2023-11-18T04:42:39;151.13;;;50.10;;
21170;SDS011;10743;52.160;20.910;2023-11-18T04:45:07;145.33;;;49.27;;
21170;SDS011;10743;52.160;20.910;2023-11-18T04:47:36;146.60;;;49.87;;
21170;SDS011;10743;52.160;20.910;2023-11-18T04:50:04;149.27;;;50.57;;
21170;SDS011;10743;52.160;20.910;2023-11-18T04:52:34;156.97;;;52.77;;
21170;SDS011;10743;52.160;20.910;2023-11-18T04:55:03;145.30;;;50.03;;
21170;SDS011;10743;52.160;20.910;2023-11-18T04:57:32;151.80;;;52.67;;
21170;SDS011;10743;52.160;20.910;2023-11-18T05:00:00;145.73;;;50.63;;
21170;SDS011;10743;52.160;20.910;2023-11-18T05:02:39;148.07;;;50.17;;
21170;SDS011;10743;52.160;20.910;2023-11-18T05:05:07;146.93;;;50.63;;
21170;SDS011;10743;52.160;20.910;2023-11-18T05:07:35;150.47;;;50.23;;
21170;SDS011;10743;52.160;20.910;2023-11-18T05:10:02;148.17;;;49.90;;
21170;SDS011;10743;52.160;20.910;2023-11-18T05:12:30;147.23;;;49.73;;
21170;SDS011;10743;52.160;20.910;2023-11-18T05:14:57;147.03;;;50.00;;
21170;SDS011;10743;52.160;20.910;2023-11-18T05:17:24;149.03;;;50.90;;
21170;SDS011;10743;52.160;20.910;2023-11-18T05:19:53;145.50;;;51.33;;
21170;SDS011;10743;52.160;20.910;2023-11-18T05:22:20;147.33;;;50.10;;
21170;SDS011;10743;52.160;20.910;2023-11-18T05:24:47;150.47;;;52.80;;
21170;SDS011;10743;52.160;20.910;2023-11-18T05:27:14;144.47;;;50.67;;
21170;SDS011;10743;52.160;20.910;2023-11-18T05:29:43;147.63;;;49.67;;
21170;SDS011;10743;52.160;20.910;2023-11-18T05:32:14;149.57;;;49.47;;
21170;SDS011;10743;52.160;20.910;2023-11-18T05:34:42;148.23;;;50.70;;
21170;SDS011;10743;52.160;20.910;2023-11-18T05:37:09;144.63;;;49.37;;
21170;SDS011;10743;52.160;20.910;2023-11-18T05:39:37;145.83;;;50.47;;
21170;SDS011;10743;52.160;20.910;2023-11-18T05:42:09;150.17;;;51.47;;
21170;SDS011;10743;52.160;20.910;2023-11-18T05:44:37;142.83;;;49.27;;
21170;SDS011;10743;52.160;20.910;2023-11-18T05:47:05;149.13;;;50.73;;
21170;SDS011;10743;52.160;20.910;2023-11-18T05:49:33;144.40;;;48.93;;
21170;SDS011;10743;52.160;20.910;2023-11-18T05:52:01;143.50;;;50.27;;
21170;SDS011;10743;52.160;20.910;2023-11-18T05:54:28;144.73;;;50.63;;
21170;SDS011;10743;52.160;20.910;2023-11-18T05:56:56;155.67;;;56.60;;
21170;SDS011;10743;52.160;20.910;2023-11-18T05:59:26;145.47;;;52.80;;
21170;SDS011;10743;52.160;20.910;2023-11-18T06:01:53;160.50;;;64.97;;
21170;SDS011;10743;52.160;20.910;2023-11-18T06:04:20;153.00;;;52.37;;
21170;SDS011;10743;52.160;20.910;2023-11-18T06:06:47;144.17;;;51.17;;
21170;SDS011;10743;52.160;20.910;2023-11-18T06:09:14;165.73;;;65.17;;
21170;SDS011;10743;52.160;20.910;2023-11-18T06:11:47;149.37;;;51.60;;
21170;SDS011;10743;52.160;20.910;2023-11-18T06:14:16;149.47;;;50.20;;
21170;SDS011;10743;52.160;20.910;2023-11-18T06:16:43;148.97;;;50.10;;
21170;SDS011;10743;52.160;20.910;2023-11-18T06:19:10;147.30;;;48.73;;
21170;SDS011;10743;52.160;20.910;2023-11-18T06:21:37;155.70;;;54.40;;
21170;SDS011;10743;52.160;20.910;2023-11-18T06:24:04;178.40;;;73.63;;
21170;SDS011;10743;52.160;20.910;2023-11-18T06:26:32;201.30;;;90.63;;
21170;SDS011;10743;52.160;20.910;2023-11-18T06:29:02;218.00;;;107.47;;
21170;SDS011;10743;52.160;20.910;2023-11-18T06:31:33;192.13;;;80.13;;
21170;SDS011;10743;52.160;20.910;2023-11-18T06:34:00;155.90;;;53.53;;
21170;SDS011;10743;52.160;20.910;2023-11-18T06:36:28;181.00;;;75.87;;
21170;SDS011;10743;52.160;20.910;2023-11-18T06:38:57;149.70;;;49.70;;
21170;SDS011;10743;52.160;20.910;2023-11-18T06:41:25;150.47;;;49.53;;
21170;SDS011;10743;52.160;20.910;2023-11-18T06:44:00;144.80;;;48.93;;
21170;SDS011;10743;52.160;20.910;2023-11-18T06:46:35;150.27;;;49.43;;
21170;SDS011;10743;52.160;20.910;2023-11-18T06:49:07;144.83;;;49.37;;
21170;SDS011;10743;52.160;20.910;2023-11-18T06:51:37;149.77;;;50.83;;
21170;SDS011;10743;52.160;20.910;2023-11-18T06:54:05;149.47;;;49.57;;
21170;SDS011;10743;52.160;20.910;2023-11-18T06:56:37;149.67;;;49.80;;
21170;SDS011;10743;52.160;20.910;2023-11-18T06:59:09;156.80;;;55.43;;
21170;SDS011;10743;52.160;20.910;2023-11-18T07:01:42;156.33;;;52.37;;
21170;SDS011;10743;52.160;20.910;2023-11-18T07:04:11;154.70;;;53.40;;
21170;SDS011;10743;52.160;20.910;2023-11-18T07:06:41;150.83;;;51.63;;
21170;SDS011;10743;52.160;20.910;2023-11-18T07:09:10;159.00;;;58.63;;
21170;SDS011;10743;52.160;20.910;2023-11-18T07:11:44;155.30;;;53.60;;
21170;SDS011;10743;52.160;20.910;2023-11-18T07:14:13;155.27;;;56.00;;
21170;SDS011;10743;52.160;20.910;2023-11-18T07:16:44;149.53;;;52.47;;
21170;SDS011;10743;52.160;20.910;2023-11-18T07:19:12;154.10;;;52.10;;
21170;SDS011;10743;52.160;20.910;2023-11-18T07:21:47;163.60;;;57.93;;
21170;SDS011;10743;52.160;20.910;2023-11-18T07:24:15;154.93;;;57.23;;
21170;SDS011;10743;52.160;20.910;2023-11-18T07:26:44;162.97;;;59.90;;
21170;SDS011;10743;52.160;20.910;2023-11-18T07:29:12;158.17;;;55.30;;
21170;SDS011;10743;52.160;20.910;2023-11-18T07:31:39;162.53;;;61.67;;
21170;SDS011;10743;52.160;20.910;2023-11-18T07:34:06;160.93;;;60.43;;
21170;SDS011;10743;52.160;20.910;2023-11-18T07:36:33;173.90;;;69.07;;
21170;SDS011;10743;52.160;20.910;2023-11-18T07:39:00;173.73;;;73.03;;
21170;SDS011;10743;52.160;20.910;2023-11-18T07:41:31;157.27;;;58.97;;
21170;SDS011;10743;52.160;20.910;2023-11-18T07:43:59;161.97;;;57.17;;
21170;SDS011;10743;52.160;20.910;2023-11-18T07:46:27;209.70;;;94.33;;
21170;SDS011;10743;52.160;20.910;2023-11-18T07:48:57;227.10;;;118.60;;
21170;SDS011;10743;52.160;20.910;2023-11-18T07:51:25;222.53;;;111.37;;
21170;SDS011;10743;52.160;20.910;2023-11-18T07:53:52;188.30;;;89.43;;
21170;SDS011;10743;52.160;20.910;2023-11-18T07:56:19;220.63;;;122.40;;
21170;SDS011;10743;52.160;20.910;2023-11-18T07:58:49;196.50;;;103.83;;
21170;SDS011;10743;52.160;20.910;2023-11-18T08:01:18;212.67;;;113.00;;
21170;SDS011;10743;52.160;20.910;2023-11-18T08:03:45;203.23;;;106.50;;
21170;SDS011;10743;52.160;20.910;2023-11-18T08:06:14;202.93;;;97.33;;
21170;SDS011;10743;52.160;20.910;2023-11-18T08:08:41;193.10;;;92.23;;
21170;SDS011;10743;52.160;20.910;2023-11-18T08:11:11;206.83;;;104.83;;
21170;SDS011;10743;52.160;20.910;2023-11-18T08:13:39;212.27;;;113.63;;
21170;SDS011;10743;52.160;20.910;2023-11-18T08:16:06;219.00;;;117.20;;
21170;SDS011;10743;52.160;20.910;2023-11-18T08:18:35;174.53;;;100.03;;
21170;SDS011;10743;52.160;20.910;2023-11-18T08:21:03;216.13;;;127.03;;
21170;SDS011;10743;52.160;20.910;2023-11-18T08:23:33;188.43;;;100.30;;
21170;SDS011;10743;52.160;20.910;2023-11-18T08:26:00;183.73;;;94.70;;
21170;SDS011;10743;52.160;20.910;2023-11-18T08:28:28;206.87;;;110.20;;
21170;SDS011;10743;52.160;20.910;2023-11-18T08:30:55;199.00;;;99.67;;
21170;SDS011;10743;52.160;20.910;2023-11-18T08:33:22;169.97;;;81.63;;
21170;SDS011;10743;52.160;20.910;2023-11-18T08:35:51;204.80;;;105.40;;
21170;SDS011;10743;52.160;20.910;2023-11-18T08:38:18;204.53;;;112.00;;
21170;SDS011;10743;52.160;20.910;2023-11-18T08:40:46;214.47;;;114.43;;
21170;SDS011;10743;52.160;20.910;2023-11-18T08:43:15;241.73;;;130.10;;
21170;SDS011;10743;52.160;20.910;2023-11-18T08:45:43;180.17;;;87.17;;
21170;SDS011;10743;52.160;20.910;2023-11-18T08:48:11;182.63;;;93.93;;
21170;SDS011;10743;52.160;20.910;2023-11-18T08:50:38;194.83;;;101.93;;
21170;SDS011;10743;52.160;20.910;2023-11-18T08:53:09;199.37;;;105.20;;
21170;SDS011;10743;52.160;20.910;2023-11-18T08:55:38;200.03;;;103.97;;
21170;SDS011;10743;52.160;20.910;2023-11-18T08:58:08;199.77;;;104.93;;
21170;SDS011;10743;52.160;20.910;2023-11-18T09:03:17;154.40;;;58.27;;
21170;SDS011;10743;52.160;20.910;2023-11-18T09:06:05;154.53;;;52.47;;
21170;SDS011;10743;52.160;20.910;2023-11-18T09:08:44;154.73;;;53.90;;
21170;SDS011;10743;52.160;20.910;2023-11-18T09:11:19;163.97;;;66.43;;
21170;SDS011;10743;52.160;20.910;2023-11-18T09:13:53;159.00;;;54.83;;
21170;SDS011;10743;52.160;20.910;2023-11-18T09:16:23;142.87;;;52.43;;
21170;SDS011;10743;52.160;20.910;2023-11-18T09:18:57;156.77;;;55.43;;
21170;SDS011;10743;52.160;20.910;2023-11-18T09:21:29;154.23;;;53.00;;
21170;SDS011;10743;52.160;20.910;2023-11-18T09:24:01;152.57;;;52.50;;
21170;SDS011;10743;52.160;20.910;2023-11-18T09:26:31;151.53;;;52.10;;
21170;SDS011;10743;52.160;20.910;2023-11-18T09:28:58;156.60;;;52.60;;
21170;SDS011;10743;52.160;20.910;2023-11-18T09:31:28;151.23;;;52.30;;
21170;SDS011;10743;52.160;20.910;2023-11-18T09:33:55;155.50;;;53.77;;
21170;SDS011;10743;52.160;20.910;2023-11-18T09:36:24;154.27;;;53.67;;
21170;SDS011;10743;52.160;20.910;2023-11-18T09:38:52;155.07;;;53.07;;
21170;SDS011;10743;52.160;20.910;2023-11-18T09:41:22;150.70;;;51.97;;
21170;SDS011;10743;52.160;20.910;2023-11-18T09:43:53;156.23;;;53.93;;
21170;SDS011;10743;52.160;20.910;2023-11-18T09:46:24;153.30;;;52.63;;
21170;SDS011;10743;52.160;20.910;2023-11-18T09:49:06;155.80;;;53.73;;
21170;SDS011;10743;52.160;20.910;2023-11-18T09:51:54;175.00;;;56.23;;
21170;SDS011;10743;52.160;20.910;2023-11-18T09:54:29;160.77;;;55.50;;
21170;SDS011;10743;52.160;20.910;2023-11-18T10:00:02;164.63;;;54.53;;
21170;SDS011;10743;52.160;20.910;2023-11-18T10:02:54;156.27;;;53.10;;
21170;SDS011;10743;52.160;20.910;2023-11-18T10:05:27;164.17;;;57.47;;
21170;SDS011;10743;52.160;20.910;2023-11-18T10:07:56;137.80;;;48.83;;
21170;SDS011;10743;52.160;20.910;2023-11-18T10:10:26;157.43;;;57.07;;
21170;SDS011;10743;52.160;20.910;2023-11-18T10:13:04;195.47;;;164.20;;
21170;SDS011;10743;52.160;20.910;2023-11-18T10:15:45;38.90;;;14.43;;
21170;SDS011;10743;52.160;20.910;2023-11-18T10:18:17;16.00;;;6.63;;
21170;SDS011;10743;52.160;20.910;2023-11-18T10:20:51;16.53;;;7.03;;
21170;SDS011;10743;52.160;20.910;2023-11-18T10:23:21;15.77;;;7.30;;
21170;SDS011;10743;52.160;20.910;2023-11-18T10:25:55;13.30;;;6.37;;
21170;SDS011;10743;52.160;20.910;2023-11-18T10:28:26;15.33;;;6.97;;
21170;SDS011;10743;52.160;20.910;2023-11-18T10:31:06;13.33;;;6.70;;
21170;SDS011;10743;52.160;20.910;2023-11-18T10:33:36;11.17;;;5.93;;
21170;SDS011;10743;52.160;20.910;2023-11-18T10:36:16;11.73;;;5.93;;
21170;SDS011;10743;52.160;20.910;2023-11-18T10:38:49;11.67;;;5.77;;
21170;SDS011;10743;52.160;20.910;2023-11-18T10:41:18;11.90;;;6.30;;
21170;SDS011;10743;52.160;20.910;2023-11-18T10:43:45;9.70;;;5.40;;
21170;SDS011;10743;52.160;20.910;2023-11-18T10:46:15;9.23;;;5.30;;
21170;SDS011;10743;52.160;20.910;2023-11-18T10:48:43;10.47;;;5.80;;
21170;SDS011;10743;52.160;20.910;2023-11-18T10:51:14;10.83;;;5.70;;
21170;SDS011;10743;52.160;20.910;2023-11-18T10:53:47;11.03;;;6.17;;
21170;SDS011;10743;52.160;20.910;2023-11-18T10:56:27;14.23;;;6.47;;
21170;SDS011;10743;52.160;20.910;2023-11-18T10:58:55;9.80;;;5.13;;
21170;SDS011;10743;52.160;20.910;2023-11-18T11:01:36;10.13;;;5.70;;
21170;SDS011;10743;52.160;20.910;2023-11-18T11:04:16;11.63;;;6.30;;
21170;SDS011;10743;52.160;20.910;2023-11-18T11:06:47;11.23;;;5.77;;
21170;SDS011;10743;52.160;20.910;2023-11-18T11:09:23;12.30;;;6.27;;
21170;SDS011;10743;52.160;20.910;2023-11-18T11:14:32;15.40;;;6.80;;
21170;SDS011;10743;52.160;20.910;2023-11-18T11:17:05;11.53;;;6.50;;
21170;SDS011;10743;52.160;20.910;2023-11-18T11:19:46;13.13;;;6.63;;
21170;SDS011;10743;52.160;20.910;2023-11-18T11:22:23;16.10;;;6.93;;
21170;SDS011;10743;52.160;20.910;2023-11-18T11:25:06;15.07;;;7.30;;
21170;SDS011;10743;52.160;20.910;2023-11-18T11:28:05;14.27;;;7.53;;
21170;SDS011;10743;52.160;20.910;2023-11-18T11:30:49;13.53;;;7.70;;
21170;SDS011;10743;52.160;20.910;2023-11-18T11:33:26;11.40;;;6.77;;
21170;SDS011;10743;52.160;20.910;2023-11-18T11:36:07;10.80;;;6.23;;
21170;SDS011;10743;52.160;20.910;2023-11-18T11:38:38;13.57;;;7.50;;
21170;SDS011;10743;52.160;20.910;2023-11-18T11:41:06;11.63;;;6.77;;
21170;SDS011;10743;52.160;20.910;2023-11-18T11:43:35;13.83;;;6.90;;
21170;SDS011;10743;52.160;20.910;2023-11-18T11:46:02;13.67;;;7.30;;
21170;SDS011;10743;52.160;20.910;2023-11-18T11:48:37;15.87;;;7.67;;
21170;SDS011;10743;52.160;20.910;2023-11-18T11:54:01;14.90;;;6.53;;
21170;SDS011;10743;52.160;20.910;2023-11-18T11:56:44;15.10;;;7.53;;
21170;SDS011;10743;52.160;20.910;2023-11-18T11:59:16;14.30;;;7.23;;
21170;SDS011;10743;52.160;20.910;2023-11-18T12:01:43;14.70;;;7.60;;
21170;SDS011;10743;52.160;20.910;2023-11-18T12:04:19;16.60;;;8.10;;
21170;SDS011;10743;52.160;20.910;2023-11-18T12:06:55;16.00;;;8.03;;
21170;SDS011;10743;52.160;20.910;2023-11-18T12:09:37;15.47;;;8.07;;
21170;SDS011;10743;52.160;20.910;2023-11-18T12:12:05;17.57;;;7.93;;
21170;SDS011;10743;52.160;20.910;2023-11-18T12:14:52;16.43;;;7.93;;
21170;SDS011;10743;52.160;20.910;2023-11-18T12:20:38;16.07;;;8.30;;
21170;SDS011;10743;52.160;20.910;2023-11-18T12:23:14;16.30;;;8.23;;
21170;SDS011;10743;52.160;20.910;2023-11-18T12:25:42;14.80;;;7.73;;
21170;SDS011;10743;52.160;20.910;2023-11-18T12:28:10;16.03;;;8.70;;
21170;SDS011;10743;52.160;20.910;2023-11-18T12:30:42;15.43;;;7.87;;
21170;SDS011;10743;52.160;20.910;2023-11-18T12:33:19;18.47;;;9.40;;
21170;SDS011;10743;52.160;20.910;2023-11-18T12:41:34;13.63;;;8.20;;
21170;SDS011;10743;52.160;20.910;2023-11-18T12:46:55;18.13;;;8.73;;
21170;SDS011;10743;52.160;20.910;2023-11-18T12:49:41;16.83;;;8.30;;
21170;SDS011;10743;52.160;20.910;2023-11-18T12:52:09;18.03;;;8.10;;
21170;SDS011;10743;52.160;20.910;2023-11-18T12:54:41;17.47;;;8.30;;
21170;SDS011;10743;52.160;20.910;2023-11-18T12:57:10;15.10;;;7.70;;
21170;SDS011;10743;52.160;20.910;2023-11-18T12:59:41;15.90;;;8.50;;
21170;SDS011;10743;52.160;20.910;2023-11-18T13:02:09;17.47;;;9.13;;
21170;SDS011;10743;52.160;20.910;2023-11-18T13:04:46;17.03;;;8.80;;
21170;SDS011;10743;52.160;20.910;2023-11-18T13:07:14;15.83;;;8.17;;
21170;SDS011;10743;52.160;20.910;2023-11-18T13:09:47;20.47;;;10.03;;
21170;SDS011;10743;52.160;20.910;2023-11-18T13:12:14;21.40;;;9.63;;
21170;SDS011;10743;52.160;20.910;2023-11-18T13:14:42;24.47;;;10.07;;
21170;SDS011;10743;52.160;20.910;2023-11-18T13:17:10;21.67;;;10.33;;
21170;SDS011;10743;52.160;20.910;2023-11-18T13:19:39;25.17;;;10.37;;
21170;SDS011;10743;52.160;20.910;2023-11-18T13:22:07;20.00;;;9.10;;
21170;SDS011;10743;52.160;20.910;2023-11-18T13:24:39;19.97;;;9.93;;
21170;SDS011;10743;52.160;20.910;2023-11-18T13:27:16;20.97;;;10.33;;
21170;SDS011;10743;52.160;20.910;2023-11-18T13:29:49;19.13;;;9.03;;
21170;SDS011;10743;52.160;20.910;2023-11-18T13:32:17;24.33;;;9.80;;
21170;SDS011;10743;52.160;20.910;2023-11-18T13:34:50;19.80;;;9.00;;
21170;SDS011;10743;52.160;20.910;2023-11-18T13:37:18;20.80;;;8.50;;
21170;SDS011;10743;52.160;20.910;2023-11-18T13:39:55;22.63;;;8.83;;
21170;SDS011;10743;52.160;20.910;2023-11-18T13:42:25;20.53;;;8.37;;
21170;SDS011;10743;52.160;20.910;2023-11-18T13:45:00;21.80;;;8.70;;
21170;SDS011;10743;52.160;20.910;2023-11-18T13:47:35;23.17;;;8.47;;
21170;SDS011;10743;52.160;20.910;2023-11-18T13:50:09;21.20;;;8.03;;
21170;SDS011;10743;52.160;20.910;2023-11-18T13:52:37;24.63;;;8.80;;
21170;SDS011;10743;52.160;20.910;2023-11-18T13:55:06;19.57;;;7.50;;
21170;SDS011;10743;52.160;20.910;2023-11-18T13:57:35;25.50;;;7.77;;
21170;SDS011;10743;52.160;20.910;2023-11-18T14:00:03;21.20;;;7.80;;
21170;SDS011;10743;52.160;20.910;2023-11-18T14:02:33;24.07;;;8.13;;
21170;SDS011;10743;52.160;20.910;2023-11-18T14:05:03;24.70;;;7.90;;
21170;SDS011;10743;52.160;20.910;2023-11-18T14:07:37;25.87;;;8.60;;
21170;SDS011;10743;52.160;20.910;2023-11-18T14:10:05;24.00;;;8.57;;
21170;SDS011;10743;52.160;20.910;2023-11-18T14:12:34;28.33;;;8.33;;
21170;SDS011;10743;52.160;20.910;2023-11-18T14:15:01;25.57;;;8.30;;
21170;SDS011;10743;52.160;20.910;2023-11-18T14:17:30;25.30;;;7.57;;
21170;SDS011;10743;52.160;20.910;2023-11-18T14:19:57;21.30;;;7.00;;
21170;SDS011;10743;52.160;20.910;2023-11-18T14:22:24;21.10;;;7.40;;
21170;SDS011;10743;52.160;20.910;2023-11-18T14:24:51;22.03;;;7.70;;
21170;SDS011;10743;52.160;20.910;2023-11-18T14:27:20;25.83;;;9.20;;
21170;SDS011;10743;52.160;20.910;2023-11-18T14:29:47;34.63;;;10.27;;
21170;SDS011;10743;52.160;20.910;2023-11-18T14:32:14;29.90;;;10.73;;
21170;SDS011;10743;52.160;20.910;2023-11-18T14:34:41;34.27;;;11.43;;
21170;SDS011;10743;52.160;20.910;2023-11-18T14:37:08;31.43;;;10.20;;
21170;SDS011;10743;52.160;20.910;2023-11-18T14:39:35;28.43;;;10.57;;
21170;SDS011;10743;52.160;20.910;2023-11-18T14:42:03;33.43;;;10.83;;